Time;durP1;ratioP1;P1;durP2;ratioP2;P2;SDS_P1;SDS_P2;PMS_P1;PMS_P2;Temp;Humidity;BMP_temperature;BMP_pressure;BME280_temperature;BME280_humidity;BME280_pressure;Samples;Min_cycle;Max_cycle;Signal;HPM_P1;HPM_P2
2022/10/12 00:00:57;;;;;;;7.85;1.90;;;;;;;12.62;50.99;100789.88;5111697;28;20071;-61
2022/10/12 00:03:24;;;;;;;9.25;2.03;;;;;;;12.59;50.91;100790.00;5111746;28;20040;-59
2022/10/12 00:06:11;;;;;;;8.07;2.40;;;;;;;12.54;51.16;100793.81;5111586;28;20079;-60
2022/10/12 00:08:39;;;;;;;7.70;1.67;;;;;;;12.54;51.01;100799.09;5110329;28;20083;-60
2022/10/12 00:11:10;;;;;;;8.68;3.03;;;;;;;12.51;50.85;100798.31;5110479;28;20093;-61
2022/10/12 00:13:36;;;;;;;13.20;2.40;;;;;;;12.49;50.98;100792.25;5110282;28;20048;-62
2022/10/12 00:16:08;;;;;;;6.70;1.80;;;;;;;12.47;50.97;100793.25;5111583;28;20051;-63
2022/10/12 00:18:36;;;;;;;6.05;2.22;;;;;;;12.46;51.09;100799.47;5111385;28;20434;-62
2022/10/12 00:21:14;;;;;;;11.68;2.95;;;;;;;12.40;51.70;100794.50;5110373;28;20109;-62
2022/10/12 00:23:41;;;;;;;8.23;1.90;;;;;;;12.42;51.20;100792.63;5111721;28;20047;-62
2022/10/12 00:26:12;;;;;;;8.07;2.70;;;;;;;12.39;51.43;100793.63;5110071;28;20043;-62
2022/10/12 00:28:40;;;;;;;7.43;2.63;;;;;;;12.38;51.03;100799.84;5110263;28;20077;-62
2022/10/12 00:31:09;;;;;;;7.35;2.25;;;;;;;12.35;51.15;100794.69;5111314;28;20139;-63
2022/10/12 00:33:38;;;;;;;10.48;2.45;;;;;;;12.33;51.24;100791.25;5110498;28;20059;-65
2022/10/12 00:36:20;;;;;;;8.00;2.10;;;;;;;12.27;51.75;100787.16;5111320;28;20125;-62
2022/10/12 00:38:49;;;;;;;9.73;2.30;;;;;;;12.28;51.49;100788.84;5110050;28;20503;-63
2022/10/12 00:41:18;;;;;;;6.00;2.25;;;;;;;12.25;51.29;100789.88;5110105;28;20052;-61
2022/10/12 00:43:47;;;;;;;9.77;2.15;;;;;;;12.23;51.24;100789.06;5110239;28;20094;-61
2022/10/12 00:46:17;;;;;;;6.65;1.67;;;;;;;12.20;51.34;100794.50;5110106;28;20051;-62
2022/10/12 00:48:49;;;;;;;10.35;2.42;;;;;;;12.18;51.56;100791.06;5111330;28;20039;-62
2022/10/12 00:51:18;;;;;;;10.95;2.13;;;;;;;12.17;51.43;100792.00;5109937;28;20083;-60
2022/10/12 00:53:51;;;;;;;8.38;1.63;;;;;;;12.15;51.38;100785.09;5110209;28;20248;-61
2022/10/12 00:56:22;;;;;;;8.60;2.28;;;;;;;12.12;51.49;100786.94;5109916;28;20051;-62
2022/10/12 00:58:50;;;;;;;8.93;2.05;;;;;;;12.14;51.55;100793.94;5109925;28;20093;-62
2022/10/12 01:01:17;;;;;;;7.53;2.05;;;;;;;12.12;51.34;100792.22;5109874;28;20130;-62
2022/10/12 01:03:44;;;;;;;8.68;2.10;;;;;;;12.11;51.56;100790.50;5109936;28;20082;-61
2022/10/12 01:06:11;;;;;;;6.82;1.75;;;;;;;12.11;51.63;100792.28;5112785;28;20075;-62
2022/10/12 01:08:38;;;;;;;9.25;2.65;;;;;;;12.09;51.42;100792.38;5114604;28;20048;-63
2022/10/12 01:11:05;;;;;;;6.13;1.83;;;;;;;12.07;51.38;100788.09;5113629;28;20039;-62
2022/10/12 01:13:32;;;;;;;7.60;1.77;;;;;;;12.03;51.21;100782.06;5114943;28;20552;-61
2022/10/12 01:16:05;;;;;;;6.25;2.00;;;;;;;11.98;51.83;100779.66;5114558;28;20499;-64
2022/10/12 01:18:40;;;;;;;7.47;2.13;;;;;;;11.97;51.68;100785.00;5113361;28;20051;-61
2022/10/12 01:21:20;;;;;;;7.88;2.20;;;;;;;11.91;51.98;100782.63;5114433;28;20075;-61
2022/10/12 01:24:21;;;;;;;7.80;1.80;;;;;;;11.88;52.01;100780.16;5113316;28;20458;-61
2022/10/12 01:27:03;;;;;;;10.32;2.05;;;;;;;11.85;52.03;100783.78;5114513;28;20089;-62
2022/10/12 01:30:01;;;;;;;6.68;1.77;;;;;;;11.80;52.09;100781.34;5114120;28;20077;-61
2022/10/12 01:33:02;;;;;;;6.13;2.22;;;;;;;11.76;52.07;100779.78;5114491;28;20047;-61
2022/10/12 01:35:31;;;;;;;9.32;2.10;;;;;;;11.74;51.79;100776.38;5114372;28;20040;-61
2022/10/12 01:38:21;;;;;;;8.02;2.20;;;;;;;11.67;52.46;100781.03;5114075;28;20047;-61
2022/10/12 01:41:04;;;;;;;6.00;1.80;;;;;;;11.65;52.31;100779.38;5114555;28;20450;-61
2022/10/12 01:43:37;;;;;;;8.48;1.98;;;;;;;11.65;52.21;100774.13;5113212;28;20052;-62
2022/10/12 01:46:15;;;;;;;6.55;1.95;;;;;;;11.63;51.83;100768.06;5114037;28;20048;-64
2022/10/12 01:48:45;;;;;;;9.70;1.95;;;;;;;11.61;52.26;100768.13;5113957;28;20086;-61
2022/10/12 01:51:17;;;;;;;10.32;1.95;;;;;;;11.60;52.23;100779.63;5112667;28;20044;-61
2022/10/12 01:53:54;;;;;;;7.70;1.83;;;;;;;11.58;52.29;100768.25;5112732;28;20480;-61
2022/10/12 01:56:56;;;;;;;9.02;2.38;;;;;;;11.55;52.72;100768.41;5113975;28;20055;-61
2022/10/12 01:59:37;;;;;;;6.60;1.75;;;;;;;11.54;52.55;100764.91;5099814;28;20143;-61
2022/10/12 02:02:18;;;;;;;7.68;2.22;;;;;;;11.53;52.64;100763.22;5113825;28;20039;-63
2022/10/12 02:04:57;;;;;;;9.80;2.28;;;;;;;11.54;52.95;100758.78;5113696;28;20051;-61
2022/10/12 02:07:46;;;;;;;7.13;2.10;;;;;;;11.52;53.06;100760.63;5113652;28;20483;-61
2022/10/12 02:10:21;;;;;;;9.32;1.92;;;;;;;11.53;52.85;100746.53;5113924;28;20048;-61
2022/10/12 02:12:49;;;;;;;9.23;2.30;;;;;;;11.54;52.70;100754.38;5112405;28;20043;-64
2022/10/12 02:15:17;;;;;;;10.07;1.85;;;;;;;11.55;52.40;100748.16;5112509;28;20096;-62
2022/10/12 02:17:46;;;;;;;4.80;2.00;;;;;;;11.54;52.64;100749.09;5112578;28;20515;-60
2022/10/12 02:20:16;;;;;;;7.80;2.03;;;;;;;11.55;52.83;100744.69;5111922;28;20457;-61
2022/10/12 02:22:46;;;;;;;5.97;1.85;;;;;;;11.55;52.56;100740.25;5112371;28;20055;-62
2022/10/12 02:25:17;;;;;;;7.65;1.70;;;;;;;11.55;52.95;100750.81;5113275;28;20453;-61
2022/10/12 02:27:53;;;;;;;10.13;2.20;;;;;;;11.55;53.11;100745.53;5111943;28;20051;-62
2022/10/12 02:30:20;;;;;;;6.47;1.92;;;;;;;11.57;52.67;100742.81;5112004;28;20127;-62
2022/10/12 02:32:57;;;;;;;5.65;1.75;;;;;;;11.55;53.08;100740.25;5113092;28;20474;-63
2022/10/12 02:35:37;;;;;;;9.68;2.10;;;;;;;11.54;53.28;100735.91;5112021;28;20489;-62
2022/10/12 02:38:12;;;;;;;7.55;1.98;;;;;;;11.55;53.01;100734.97;5111817;28;20044;-68
2022/10/12 02:40:53;;;;;;;9.38;2.25;;;;;;;11.52;53.15;100727.22;5112167;28;20060;-61
2022/10/12 02:43:26;;;;;;;7.97;2.00;;;;;;;11.53;52.80;100723.66;5113062;28;20047;-62
2022/10/12 02:45:56;;;;;;;7.18;2.15;;;;;;;11.52;52.77;100726.38;5111869;28;20105;-61
2022/10/12 02:48:24;;;;;;;10.38;2.58;;;;;;;11.48;52.67;100723.03;5111643;28;20101;-64
2022/10/12 02:50:54;;;;;;;6.78;2.25;;;;;;;11.46;52.96;100725.72;5111458;28;20083;-63
2022/10/12 02:53:22;;;;;;;8.10;2.47;;;;;;;11.44;52.92;100721.44;5111430;28;20568;-62
2022/10/12 02:55:52;;;;;;;9.88;2.95;;;;;;;11.41;53.03;100717.19;5111730;28;20495;-62
2022/10/12 02:58:19;;;;;;;10.65;2.85;;;;;;;11.42;52.90;100723.28;5111466;28;20158;-65
2022/10/12 03:00:46;;;;;;;5.05;1.80;;;;;;;11.39;53.22;100721.63;5112880;28;20051;-61
2022/10/12 03:03:12;;;;;;;9.27;2.58;;;;;;;11.38;53.00;100721.72;5112487;28;20112;-62
2022/10/12 03:05:39;;;;;;;9.70;2.88;;;;;;;11.37;52.99;100718.22;5112750;28;20064;-64
2022/10/12 03:08:05;;;;;;;9.77;2.20;;;;;;;11.34;53.04;100708.66;5112437;28;20132;-62
2022/10/12 03:10:32;;;;;;;7.05;1.80;;;;;;;11.34;53.15;100710.44;5112561;28;20043;-62
2022/10/12 03:12:59;;;;;;;8.23;2.15;;;;;;;11.33;53.17;100703.47;5112372;28;20082;-62
2022/10/12 03:15:25;;;;;;;7.20;2.10;;;;;;;11.31;53.31;100711.44;5112343;28;20047;-64
2022/10/12 03:17:52;;;;;;;6.60;2.08;;;;;;;11.31;53.25;100705.31;5112248;28;20047;-62
2022/10/12 03:20:19;;;;;;;9.65;2.30;;;;;;;11.31;53.29;100702.69;5111941;28;20078;-61
2022/10/12 03:22:46;;;;;;;11.05;2.53;;;;;;;11.31;53.54;100706.19;5112422;28;20055;-63
2022/10/12 03:25:12;;;;;;;4.90;2.10;;;;;;;11.31;53.38;100703.53;5111840;28;20074;-61
2022/10/12 03:27:39;;;;;;;8.77;2.38;;;;;;;11.30;53.59;100699.22;5112137;28;20052;-61
2022/10/12 03:30:07;;;;;;;5.60;1.92;;;;;;;11.29;53.44;100700.09;5111872;28;20056;-62
2022/10/12 03:32:33;;;;;;;8.75;2.40;;;;;;;11.29;53.65;100699.28;5111953;28;20047;-64
2022/10/12 03:35:00;;;;;;;12.40;3.00;;;;;;;11.27;53.50;100694.06;5111960;28;20087;-63
2022/10/12 03:37:27;;;;;;;11.38;2.78;;;;;;;11.26;53.57;100688.84;5112024;28;20162;-62
2022/10/12 03:39:53;;;;;;;9.93;2.85;;;;;;;11.24;53.54;100691.56;5111792;28;20098;-64
2022/10/12 03:42:20;;;;;;;5.55;1.90;;;;;;;11.24;53.77;100695.97;5111992;28;20050;-61
2022/10/12 03:44:47;;;;;;;7.45;2.28;;;;;;;11.21;53.76;100689.03;5111956;28;20055;-63
2022/10/12 03:47:13;;;;;;;6.70;1.90;;;;;;;11.21;53.67;100689.03;5111902;28;20087;-61
2022/10/12 03:49:40;;;;;;;8.25;2.33;;;;;;;11.20;53.76;100687.34;5111692;28;20130;-62
2022/10/12 03:52:07;;;;;;;7.85;2.53;;;;;;;11.19;53.65;100677.72;5111861;28;20522;-61
2022/10/12 03:54:34;;;;;;;6.32;2.05;;;;;;;11.18;53.71;100690.03;5111719;28;20093;-62
2022/10/12 03:57:01;;;;;;;9.98;2.80;;;;;;;11.17;53.66;100687.47;5111683;28;20086;-61
2022/10/12 03:59:27;;;;;;;9.75;2.30;;;;;;;11.17;53.70;100690.09;5111325;28;20090;-61
2022/10/12 04:01:54;;;;;;;10.48;2.70;;;;;;;11.15;53.68;100690.19;5111879;28;20605;-61
2022/10/12 04:04:20;;;;;;;8.40;2.38;;;;;;;11.15;54.01;100692.84;5111647;28;20079;-61
2022/10/12 04:06:47;;;;;;;7.65;2.20;;;;;;;11.15;54.04;100689.34;5111562;28;20087;-62
2022/10/12 04:09:13;;;;;;;10.98;2.67;;;;;;;11.14;54.11;100688.47;5111396;28;20086;-61
2022/10/12 04:11:40;;;;;;;7.93;2.08;;;;;;;11.14;54.43;100687.63;5095363;28;20048;-60
2022/10/12 04:14:07;;;;;;;7.15;2.67;;;;;;;11.14;54.15;100687.63;5090890;28;20044;-60
2022/10/12 04:16:33;;;;;;;11.07;2.55;;;;;;;11.13;54.36;100680.63;5090780;28;20462;-62
2022/10/12 04:19:00;;;;;;;12.93;2.50;;;;;;;11.13;54.40;100680.63;5090014;28;20568;-62
2022/10/12 04:21:30;;;;;;;10.32;2.38;;;;;;;11.10;54.85;100678.16;5090164;28;20090;-62
2022/10/12 04:23:57;;;;;;;8.43;2.35;;;;;;;11.12;54.33;100679.78;5091049;28;20466;-62
2022/10/12 04:26:23;;;;;;;7.25;2.25;;;;;;;11.12;54.55;100676.28;5090779;28;20102;-61
2022/10/12 04:28:50;;;;;;;6.47;2.03;;;;;;;11.13;54.50;100675.34;5091098;28;20494;-61
2022/10/12 04:31:17;;;;;;;7.97;2.70;;;;;;;11.13;54.66;100675.34;5090883;28;20047;-62
2022/10/12 04:33:44;;;;;;;8.43;2.10;;;;;;;11.13;54.64;100670.94;5090903;28;20085;-61
2022/10/12 04:36:10;;;;;;;6.60;2.50;;;;;;;11.14;54.75;100671.81;5091297;28;20101;-61
2022/10/12 04:38:37;;;;;;;6.80;2.00;;;;;;;11.15;54.75;100670.88;5090945;28;20044;-62
2022/10/12 04:41:04;;;;;;;5.72;1.80;;;;;;;11.15;54.55;100676.16;5092639;28;20060;-60
2022/10/12 04:43:31;;;;;;;5.85;1.92;;;;;;;11.17;54.66;100671.66;5095069;28;20081;-61
2022/10/12 04:45:59;;;;;;;8.82;2.17;;;;;;;11.18;54.88;100678.66;5095283;28;20052;-61
2022/10/12 04:48:26;;;;;;;16.63;2.67;;;;;;;11.21;54.71;100678.50;5093470;28;20109;-62
2022/10/12 04:50:52;;;;;;;9.30;2.28;;;;;;;11.22;54.74;100674.97;5093873;28;20075;-60
2022/10/12 04:53:19;;;;;;;6.45;1.92;;;;;;;11.22;54.70;100672.34;5094716;28;20489;-64
2022/10/12 04:55:46;;;;;;;8.73;2.03;;;;;;;11.24;54.71;100678.38;5094445;28;20126;-62
2022/10/12 04:58:13;;;;;;;6.95;2.40;;;;;;;11.26;54.80;100671.28;5094637;28;20452;-61
2022/10/12 05:00:39;;;;;;;7.63;2.25;;;;;;;11.27;54.48;100672.97;5094387;28;20087;-61
2022/10/12 05:03:06;;;;;;;7.18;1.92;;;;;;;11.28;54.81;100666.78;5094959;28;20063;-61
2022/10/12 05:05:35;;;;;;;5.18;1.65;;;;;;;11.30;54.90;100661.44;5094345;28;20131;-60
2022/10/12 05:08:03;;;;;;;7.50;1.80;;;;;;;11.31;54.77;100664.00;5094344;28;20515;-62
2022/10/12 05:10:29;;;;;;;5.68;1.52;;;;;;;11.33;54.67;100656.88;5094232;28;20048;-60
2022/10/12 05:12:56;;;;;;;5.93;1.95;;;;;;;11.34;54.78;100658.56;5094559;28;20121;-61
2022/10/12 05:15:23;;;;;;;7.78;2.10;;;;;;;11.36;54.78;100655.03;5094551;28;20052;-61
2022/10/12 05:17:49;;;;;;;5.28;1.60;;;;;;;11.35;54.65;100654.16;5094333;28;20083;-61
2022/10/12 05:20:16;;;;;;;7.65;2.13;;;;;;;11.36;54.39;100655.03;5094160;28;20566;-62
2022/10/12 05:22:43;;;;;;;6.93;1.80;;;;;;;11.36;54.44;100652.41;5094109;28;20464;-62
2022/10/12 05:25:09;;;;;;;7.28;1.63;;;;;;;11.34;54.37;100648.03;5092975;28;20052;-61
2022/10/12 05:27:36;;;;;;;9.52;1.73;;;;;;;11.35;54.30;100643.63;5093932;28;20127;-64
2022/10/12 05:30:04;;;;;;;6.45;1.60;;;;;;;11.33;54.48;100646.31;5093878;28;20052;-61
2022/10/12 05:32:31;;;;;;;7.97;1.83;;;;;;;11.32;54.27;100647.25;5092847;28;20559;-61
2022/10/12 05:34:57;;;;;;;8.07;2.15;;;;;;;11.30;54.12;100651.75;5093953;28;20048;-61
2022/10/12 05:37:24;;;;;;;6.85;2.13;;;;;;;11.29;54.32;100652.66;5093713;28;20572;-63
2022/10/12 05:39:51;;;;;;;7.00;1.83;;;;;;;11.28;54.43;100650.97;5093865;28;20048;-61
2022/10/12 05:42:17;;;;;;;7.72;2.33;;;;;;;11.27;54.49;100651.88;5093879;28;20127;-61
2022/10/12 05:44:44;;;;;;;5.38;1.70;;;;;;;11.27;54.62;100645.75;5093843;28;20110;-61
2022/10/12 05:47:10;;;;;;;6.85;1.80;;;;;;;11.28;54.40;100656.22;5093819;28;20090;-63
2022/10/12 05:49:37;;;;;;;3.88;1.55;;;;;;;11.27;54.53;100645.75;5093475;28;20223;-61
2022/10/12 05:52:03;;;;;;;9.63;1.70;;;;;;;11.27;54.57;100648.38;5092339;28;20123;-61
2022/10/12 05:54:30;;;;;;;5.35;1.50;;;;;;;11.27;54.62;100651.03;5092526;28;20127;-61
2022/10/12 05:56:57;;;;;;;4.78;1.60;;;;;;;11.28;54.65;100652.72;5093396;28;20078;-62
2022/10/12 05:59:24;;;;;;;5.18;1.83;;;;;;;11.29;54.65;100652.66;5093347;28;20060;-60
2022/10/12 06:01:50;;;;;;;6.75;1.42;;;;;;;11.30;54.75;100659.66;5093554;28;20113;-60
2022/10/12 06:04:17;;;;;;;6.55;1.90;;;;;;;11.30;54.75;100653.53;5093413;28;20438;-61
2022/10/12 06:06:44;;;;;;;5.95;1.70;;;;;;;11.32;54.76;100655.16;5093537;28;20473;-60
2022/10/12 06:09:11;;;;;;;5.07;1.77;;;;;;;11.34;54.87;100653.31;5093102;28;20055;-60
2022/10/12 06:11:38;;;;;;;5.35;1.40;;;;;;;11.35;55.03;100651.53;5093297;28;20048;-61
2022/10/12 06:14:05;;;;;;;5.60;1.60;;;;;;;11.37;54.89;100652.34;5093230;28;20048;-60
2022/10/12 06:16:32;;;;;;;6.32;1.65;;;;;;;11.38;54.88;100650.53;5093170;28;20079;-62
2022/10/12 06:18:58;;;;;;;6.93;1.80;;;;;;;11.40;54.98;100651.34;5092763;28;20471;-61
2022/10/12 06:21:25;;;;;;;5.75;1.30;;;;;;;11.42;54.88;100654.75;5093173;28;20045;-60
2022/10/12 06:23:59;;;;;;;7.00;1.52;;;;;;;11.45;55.19;100660.72;5093066;28;20052;-62
2022/10/12 06:26:26;;;;;;;5.47;1.40;;;;;;;11.48;55.24;100657.09;5092975;28;20124;-60
2022/10/12 06:28:52;;;;;;;5.38;1.40;;;;;;;11.51;54.94;100650.84;5092536;28;20095;-60
2022/10/12 06:31:19;;;;;;;4.65;1.55;;;;;;;11.54;55.20;100653.31;5092847;28;20051;-61
2022/10/12 06:33:46;;;;;;;6.50;1.65;;;;;;;11.57;54.97;100653.19;5092636;28;20084;-61
2022/10/12 06:36:12;;;;;;;5.15;1.50;;;;;;;11.59;54.97;100653.97;5092654;28;20040;-60
2022/10/12 06:38:39;;;;;;;4.00;1.40;;;;;;;11.61;55.16;100654.75;5092705;28;20109;-61
2022/10/12 06:41:06;;;;;;;7.85;1.90;;;;;;;11.64;55.14;100659.88;5092738;28;20079;-62
2022/10/12 06:43:32;;;;;;;5.85;1.80;;;;;;;11.65;55.06;100658.06;5092538;28;20461;-62
2022/10/12 06:46:02;;;;;;;6.95;1.88;;;;;;;11.66;54.90;100658.00;5092574;28;20048;-62
2022/10/12 06:48:29;;;;;;;2.15;1.27;;;;;;;11.67;54.87;100656.25;5092469;28;20055;-61
2022/10/12 06:50:57;;;;;;;4.05;1.55;;;;;;;11.68;54.80;100652.66;5092597;28;20092;-61
2022/10/12 06:53:27;;;;;;;7.60;2.05;;;;;;;11.68;54.81;100653.53;5092812;28;20048;-61
2022/10/12 06:55:54;;;;;;;7.32;1.98;;;;;;;11.68;54.84;100658.81;5091287;28;20048;-60
2022/10/12 06:58:20;;;;;;;6.25;1.58;;;;;;;11.70;54.72;100656.94;5092214;28;20082;-61
2022/10/12 07:00:47;;;;;;;6.93;1.55;;;;;;;11.71;54.77;100652.53;5092152;28;20052;-61
2022/10/12 07:03:15;;;;;;;6.63;1.45;;;;;;;11.73;54.84;100658.56;5091962;28;20088;-60
2022/10/12 07:05:42;;;;;;;6.35;1.80;;;;;;;11.73;54.73;100651.53;5092127;28;20127;-65
2022/10/12 07:08:08;;;;;;;6.13;1.60;;;;;;;11.74;54.75;100652.41;5110761;27;20507;-63
2022/10/12 07:10:35;;;;;;;6.18;1.90;;;;;;;11.76;54.90;100649.66;5111083;28;20059;-61
2022/10/12 07:13:02;;;;;;;5.05;1.60;;;;;;;11.79;54.87;100657.44;5112104;28;20079;-61
2022/10/12 07:15:28;;;;;;;5.28;1.58;;;;;;;11.80;55.06;100644.19;5112535;28;20078;-63
2022/10/12 07:17:55;;;;;;;6.82;1.60;;;;;;;11.84;54.98;100651.00;5112502;28;20196;-62
2022/10/12 07:20:22;;;;;;;4.75;1.45;;;;;;;11.87;55.20;100650.00;5112297;28;20085;-60
2022/10/12 07:22:49;;;;;;;8.18;1.65;;;;;;;11.92;55.09;100641.88;5111120;28;20054;-61
2022/10/12 07:25:15;;;;;;;7.18;1.92;;;;;;;11.96;55.11;100654.00;5112306;28;20101;-61
2022/10/12 07:27:42;;;;;;;5.57;1.38;;;;;;;11.99;55.11;100649.41;5112200;28;20044;-61
2022/10/12 07:30:09;;;;;;;6.30;1.92;;;;;;;12.02;55.16;100648.41;5111793;28;20565;-63
2022/10/12 07:32:36;;;;;;;9.98;2.53;;;;;;;12.06;55.01;100647.38;5112185;28;20496;-61
2022/10/12 07:35:03;;;;;;;11.93;1.83;;;;;;;12.11;55.21;100648.00;5111978;28;20139;-63
2022/10/12 07:37:29;;;;;;;5.75;2.25;;;;;;;12.17;55.21;100651.25;5112132;28;20693;-62
2022/10/12 07:39:56;;;;;;;4.97;2.10;;;;;;;12.22;55.28;100660.66;5111783;28;20090;-60
2022/10/12 07:42:24;;;;;;;41.60;7.75;;;;;;;12.29;55.46;100660.38;5111744;28;20419;-63
2022/10/12 07:44:50;;;;;;;10.20;3.00;;;;;;;12.35;55.39;100657.41;5111816;28;20105;-63
2022/10/12 07:47:18;;;;;;;7.25;2.33;;;;;;;12.41;55.09;100650.97;5111937;28;20079;-64
2022/10/12 07:49:45;;;;;;;9.80;2.38;;;;;;;12.49;55.48;100656.72;5110389;28;20074;-60
2022/10/12 07:52:11;;;;;;;9.45;2.42;;;;;;;12.57;55.25;100658.97;5111885;28;20052;-62
2022/10/12 07:54:38;;;;;;;7.10;2.40;;;;;;;12.65;55.07;100651.50;5111700;28;20407;-61
2022/10/12 07:57:05;;;;;;;12.57;2.53;;;;;;;12.72;54.92;100652.06;5111650;28;20058;-60
2022/10/12 07:59:31;;;;;;;6.88;2.22;;;;;;;12.79;54.69;100650.81;5111383;28;20094;-63
2022/10/12 08:01:58;;;;;;;7.70;2.10;;;;;;;12.85;54.93;100642.53;5111492;28;20054;-61
2022/10/12 08:04:25;;;;;;;11.05;2.30;;;;;;;12.93;54.66;100655.34;5111759;28;20466;-62
2022/10/12 08:06:51;;;;;;;7.47;1.80;;;;;;;12.99;54.70;100643.59;5111752;28;20541;-61
2022/10/12 08:09:18;;;;;;;9.07;1.98;;;;;;;13.04;54.28;100644.22;5110287;28;20518;-61
2022/10/12 08:11:45;;;;;;;6.28;1.75;;;;;;;13.11;54.34;100652.66;5111322;28;20048;-61
2022/10/12 08:14:14;;;;;;;4.18;1.63;;;;;;;13.15;54.54;100647.16;5111531;28;20493;-60
2022/10/12 08:16:44;;;;;;;8.60;1.90;;;;;;;13.22;54.34;100654.72;5114169;28;20089;-61
2022/10/12 08:19:10;;;;;;;10.48;2.03;;;;;;;13.29;54.44;100645.53;5114456;28;20048;-61
2022/10/12 08:21:37;;;;;;;8.10;1.75;;;;;;;13.35;54.11;100650.47;5115845;28;20051;-61
2022/10/12 08:24:04;;;;;;;7.07;1.65;;;;;;;13.40;54.29;100648.47;5115753;28;20097;-63
2022/10/12 08:26:32;;;;;;;6.70;1.65;;;;;;;13.46;54.18;100646.41;5113991;28;20101;-63
2022/10/12 08:29:00;;;;;;;20.02;4.82;;;;;;;13.51;54.30;100652.34;5113000;28;20487;-61
2022/10/12 08:31:27;;;;;;;6.40;1.70;;;;;;;13.56;53.89;100645.00;5113431;28;20043;-61
2022/10/12 08:33:56;;;;;;;5.97;1.75;;;;;;;13.60;53.87;100648.34;5114790;28;20108;-61
2022/10/12 08:36:22;;;;;;;6.40;1.95;;;;;;;13.65;53.84;100647.13;5113718;28;20040;-63
2022/10/12 08:38:52;;;;;;;7.03;2.13;;;;;;;13.69;53.78;100645.19;5114012;28;20048;-63
2022/10/12 08:42:04;;;;;;;6.25;2.42;;;;;;;13.68;54.01;100640.81;5113549;28;20055;-61
2022/10/12 08:45:01;;;;;;;9.05;3.38;;;;;;;13.74;53.49;100647.56;5115488;28;20043;-61
2022/10/12 08:47:41;;;;;;;9.98;3.20;;;;;;;13.79;53.45;100640.19;5115467;28;20051;-61
2022/10/12 08:50:20;;;;;;;9.32;3.28;;;;;;;13.82;53.50;100647.97;5115112;28;20043;-61
2022/10/12 08:53:14;;;;;;;9.82;3.38;;;;;;;13.85;53.27;100641.66;5114236;28;20104;-61
2022/10/12 08:55:44;;;;;;;8.23;2.58;;;;;;;13.92;53.14;100643.88;5115376;28;20051;-61
2022/10/12 08:58:20;;;;;;;8.75;3.00;;;;;;;13.94;53.26;100639.34;5114741;28;20073;-60
2022/10/12 09:00:51;;;;;;;7.18;3.03;;;;;;;13.99;53.21;100638.22;5115052;28;20093;-63
2022/10/12 09:03:43;;;;;;;7.68;2.92;;;;;;;14.01;53.18;100631.03;5115132;28;20078;-60
2022/10/12 09:06:21;;;;;;;7.40;2.38;;;;;;;14.04;53.21;100626.44;5115206;28;20105;-62
2022/10/12 09:09:12;;;;;;;8.82;2.47;;;;;;;14.10;53.04;100635.84;5113503;28;20079;-61
2022/10/12 09:12:05;;;;;;;6.63;2.67;;;;;;;14.15;53.17;100628.47;5114902;28;20120;-61
2022/10/12 09:14:34;;;;;;;7.28;2.70;;;;;;;14.28;53.21;100622.47;5113868;28;20571;-61
2022/10/12 09:17:07;;;;;;;10.43;2.40;;;;;;;14.35;53.21;100621.13;5113540;28;20105;-63
2022/10/12 09:19:41;;;;;;;5.93;2.25;;;;;;;14.45;52.99;100624.09;5113172;28;20043;-62
2022/10/12 09:22:18;;;;;;;6.65;2.20;;;;;;;14.54;52.96;100633.31;5114725;28;20499;-61
2022/10/12 09:24:47;;;;;;;7.85;2.90;;;;;;;14.67;52.95;100628.97;5113150;28;20109;-61
2022/10/12 09:27:18;;;;;;;7.85;3.00;;;;;;;14.79;52.82;100629.19;5113228;28;20094;-61
2022/10/12 09:29:49;;;;;;;8.73;2.53;;;;;;;14.92;52.91;100634.59;5112953;28;20359;-61
2022/10/12 09:32:31;;;;;;;7.18;2.85;;;;;;;15.02;52.82;100626.94;5113483;28;20514;-64
2022/10/12 09:34:58;;;;;;;6.95;2.90;;;;;;;15.17;53.02;100630.44;5113299;28;20126;-60
2022/10/12 09:37:29;;;;;;;6.30;2.90;;;;;;;15.25;52.99;100633.44;5114324;28;20633;-61
2022/10/12 09:39:56;;;;;;;7.25;2.90;;;;;;;15.36;52.85;100630.13;5114104;28;20043;-63
2022/10/12 09:42:24;;;;;;;6.85;2.78;;;;;;;15.48;52.87;100639.94;5113108;28;20047;-62
2022/10/12 09:45:16;;;;;;;8.70;3.25;;;;;;;15.57;52.61;100632.34;5114016;28;20043;-61
2022/10/12 09:48:18;;;;;;;8.53;2.80;;;;;;;15.70;52.22;100630.63;5108156;28;20486;-61
2022/10/12 09:50:47;;;;;;;9.80;3.50;;;;;;;15.88;52.28;100625.06;5114174;28;20090;-61
2022/10/12 09:53:22;;;;;;;8.73;2.97;;;;;;;15.96;51.93;100621.94;5113906;28;20052;-62
2022/10/12 09:56:13;;;;;;;10.25;3.17;;;;;;;16.07;51.83;100623.91;5112888;28;20047;-62
2022/10/12 09:58:50;;;;;;;9.43;3.30;;;;;;;16.19;51.69;100622.22;5107150;28;20052;-63
2022/10/12 10:01:25;;;;;;;8.60;3.22;;;;;;;16.30;51.73;100613.53;5112912;28;20104;-62
2022/10/12 10:04:23;;;;;;;7.15;2.83;;;;;;;16.38;51.64;100611.19;5112619;28;20221;-63
2022/10/12 10:06:50;;;;;;;9.35;3.17;;;;;;;16.56;51.60;100606.41;5114027;28;20124;-61
2022/10/12 10:09:34;;;;;;;12.00;3.08;;;;;;;16.60;50.74;100607.06;5113411;28;20051;-62
2022/10/12 10:12:17;;;;;;;8.27;2.38;;;;;;;16.71;50.62;100609.81;5113617;28;20089;-62
2022/10/12 10:14:44;;;;;;;8.07;3.00;;;;;;;16.87;51.28;100603.44;5113812;28;20052;-61
2022/10/12 10:17:26;;;;;;;11.65;2.92;;;;;;;16.95;50.60;100614.41;5113389;28;20476;-64
2022/10/12 10:19:55;;;;;;;6.70;2.70;;;;;;;17.09;50.67;100599.31;5112080;28;20472;-62
2022/10/12 10:22:23;;;;;;;8.43;2.83;;;;;;;17.19;50.95;100609.19;5113508;28;20081;-63
2022/10/12 10:24:52;;;;;;;8.32;2.53;;;;;;;17.28;49.90;100604.16;5111982;28;20055;-63
2022/10/12 10:27:28;;;;;;;11.95;2.83;;;;;;;17.39;49.31;100611.38;5112028;28;20083;-60
2022/10/12 10:30:16;;;;;;;9.13;3.40;;;;;;;17.50;49.35;100605.25;5113277;28;20104;-61
2022/10/12 10:33:13;;;;;;;6.38;2.50;;;;;;;17.65;50.96;100612.13;5112225;28;20055;-61
2022/10/12 10:35:40;;;;;;;8.00;2.58;;;;;;;17.83;50.43;100604.59;5111851;28;20039;-61
2022/10/12 10:38:14;;;;;;;7.30;2.50;;;;;;;17.97;49.11;100608.03;5112191;28;20126;-60
2022/10/12 10:40:41;;;;;;;6.18;2.05;;;;;;;18.15;49.52;100604.97;5113199;28;20051;-63
2022/10/12 10:43:22;;;;;;;6.90;2.55;;;;;;;18.24;47.78;100596.28;5113047;28;20071;-62
2022/10/12 10:45:54;;;;;;;7.15;2.50;;;;;;;18.40;49.01;100595.97;5112012;28;20048;-63
2022/10/12 10:48:30;;;;;;;5.63;2.20;;;;;;;18.52;48.59;100594.19;5111805;28;20104;-61
2022/10/12 10:51:00;;;;;;;7.25;2.58;;;;;;;18.66;48.01;100597.59;5113103;28;20697;-61
2022/10/12 10:53:42;;;;;;;8.45;2.25;;;;;;;18.78;46.74;100593.09;5112684;28;20465;-63
2022/10/12 10:56:20;;;;;;;8.00;1.98;;;;;;;18.89;46.56;100596.63;5112647;28;20083;-61
2022/10/12 10:58:55;;;;;;;10.55;2.10;;;;;;;18.98;46.17;100594.19;5111672;28;20264;-63
2022/10/12 11:01:37;;;;;;;6.00;2.10;;;;;;;19.00;46.40;100592.28;5112695;28;20090;-64
2022/10/12 11:04:27;;;;;;;7.88;2.28;;;;;;;19.06;46.60;100586.47;5111656;28;20047;-61
2022/10/12 11:06:59;;;;;;;4.43;2.05;;;;;;;19.17;46.07;100590.94;5110550;28;20044;-61
2022/10/12 11:09:32;;;;;;;6.23;2.10;;;;;;;19.27;47.20;100591.91;5110929;28;20553;-61
2022/10/12 11:12:06;;;;;;;6.88;2.17;;;;;;;19.43;48.58;100592.50;5111234;28;20106;-60
2022/10/12 11:14:39;;;;;;;6.70;1.75;;;;;;;19.64;47.12;100587.22;5111319;28;20113;-60
2022/10/12 11:17:16;;;;;;;4.95;2.10;;;;;;;19.90;47.04;100582.38;5110978;28;20052;-63
2022/10/12 11:19:50;;;;;;;5.72;1.98;;;;;;;20.23;46.55;100579.69;5109023;28;20091;-63
2022/10/12 11:22:31;;;;;;;5.72;1.52;;;;;;;20.62;45.93;100578.19;5108279;28;20123;-61
2022/10/12 11:25:12;;;;;;;7.53;2.03;;;;;;;21.10;45.49;100576.75;5112274;28;20134;-62
2022/10/12 11:27:41;;;;;;;4.82;2.05;;;;;;;21.69;46.72;100571.50;5111499;28;20051;-63
2022/10/12 11:30:15;;;;;;;7.03;1.70;;;;;;;22.36;45.04;100572.59;5109333;28;20459;-62
2022/10/12 11:32:53;;;;;;;5.00;1.83;;;;;;;23.12;43.78;100569.91;5111486;28;20043;-60
2022/10/12 11:35:37;;;;;;;4.45;1.75;;;;;;;23.95;42.49;100568.91;5111135;28;20052;-61
2022/10/12 11:38:08;;;;;;;5.63;1.75;;;;;;;24.77;40.84;100564.22;5111298;28;20120;-70
2022/10/12 11:41:04;;;;;;;3.80;1.50;;;;;;;25.51;39.54;100557.41;5112330;28;20055;-63
2022/10/12 11:44:14;;;;;;;3.60;1.58;;;;;;;26.34;37.11;100552.03;5111321;28;20061;-63